Time;durP1;ratioP1;P1;durP2;ratioP2;P2;SDS_P1;SDS_P2;PMS_P1;PMS_P2;Temp;Humidity;BMP_temperature;BMP_pressure;BME280_temperature;BME280_humidity;BME280_pressure;Samples;Min_cycle;Max_cycle;Signal;HPM_P1;HPM_P2
2021/07/02 00:00:18;;;;;;;6.60;4.53;;;;;;;17.68;80.77;100015.03;2764559;86;20126;-62
2021/07/02 00:04:22;;;;;;;7.22;5.28;;;;;;;17.64;80.76;100013.73;2763929;86;21049;-62
2021/07/02 00:09:03;;;;;;;5.90;4.25;;;;;;;17.59;80.86;100007.56;2764515;86;21121;-62
2021/07/02 00:13:05;;;;;;;4.08;3.67;;;;;;;17.61;80.74;100017.63;2764062;86;21013;-62
2021/07/02 00:17:08;;;;;;;6.30;3.87;;;;;;;17.56;80.52;100018.65;2764151;86;20994;-62
2021/07/02 00:21:17;;;;;;;4.45;3.83;;;;;;;17.55;80.50;100012.95;2763734;84;21053;-62
2021/07/02 00:25:19;;;;;;;4.50;3.25;;;;;;;17.50;80.20;100011.30;2762891;86;21038;-62
2021/07/02 00:29:24;;;;;;;5.85;3.60;;;;;;;17.43;80.25;100010.36;2763057;85;21057;-62
2021/07/02 00:33:30;;;;;;;7.67;3.30;;;;;;;17.36;80.17;100012.91;2747547;86;21050;-62
2021/07/02 00:37:36;;;;;;;3.98;3.02;;;;;;;17.30;80.14;100010.94;2655004;89;21513;-62
2021/07/02 00:41:41;;;;;;;4.42;3.08;;;;;;;17.23;80.39;100016.18;2666606;88;21101;-62
2021/07/02 00:45:47;;;;;;;4.35;3.10;;;;;;;17.21;80.90;100022.24;2679030;88;21063;-62
2021/07/02 00:49:51;;;;;;;5.87;3.52;;;;;;;17.23;81.43;100016.18;2696713;88;21056;-62
2021/07/02 00:53:58;;;;;;;4.53;3.22;;;;;;;17.05;81.83;100013.73;2696482;88;21107;-62
2021/07/02 00:58:03;;;;;;;11.63;3.22;;;;;;;16.75;83.47;100017.52;2696346;88;21110;-62
2021/07/02 01:02:09;;;;;;;2.85;2.22;;;;;;;16.52;85.01;100024.45;2695810;88;21003;-62
2021/07/02 01:06:15;;;;;;;4.80;2.47;;;;;;;16.37;85.46;100027.01;2696393;87;21047;-62
2021/07/02 01:10:21;;;;;;;3.40;1.60;;;;;;;16.21;86.39;100025.68;2695987;87;21106;-62
2021/07/02 01:14:27;;;;;;;3.00;1.70;;;;;;;16.10;87.68;100018.30;2695340;87;21051;-62
2021/07/02 01:18:32;;;;;;;4.53;3.05;;;;;;;16.13;88.35;100012.62;2695462;88;21058;-62
2021/07/02 01:22:39;;;;;;;5.47;2.37;;;;;;;16.22;88.59;100011.25;2696210;87;21078;-62
2021/07/02 01:26:44;;;;;;;3.37;1.92;;;;;;;16.21;88.64;100013.12;2696218;88;21031;-62
2021/07/02 01:30:51;;;;;;;3.40;2.63;;;;;;;16.28;89.23;100011.91;2695912;88;21071;-62
2021/07/02 01:34:55;;;;;;;5.08;2.05;;;;;;;16.38;89.59;99984.89;2696004;88;21095;-63
2021/07/02 01:39:00;;;;;;;3.77;2.72;;;;;;;16.51;89.62;99993.25;2695699;88;21086;-62
2021/07/02 01:43:05;;;;;;;6.45;2.55;;;;;;;16.67;89.67;99981.61;2695816;88;21031;-62
2021/07/02 01:47:09;;;;;;;5.63;2.30;;;;;;;16.73;89.15;99985.45;2696295;88;21054;-62
2021/07/02 01:51:12;;;;;;;8.33;3.25;;;;;;;16.63;89.10;99988.87;2696253;88;21058;-62
2021/07/02 01:55:16;;;;;;;4.85;3.27;;;;;;;16.50;89.52;99984.02;2696361;88;21067;-62
2021/07/02 01:59:20;;;;;;;4.50;2.75;;;;;;;16.50;89.69;99978.64;2709588;87;21055;-62
2021/07/02 02:03:23;;;;;;;3.60;2.72;;;;;;;16.45;89.88;99985.04;2720020;87;21047;-62
2021/07/02 02:07:27;;;;;;;8.45;3.22;;;;;;;16.44;90.28;99984.70;2720686;87;21028;-63
2021/07/02 02:11:29;;;;;;;11.22;3.25;;;;;;;16.51;90.88;99984.38;2788564;85;21044;-63
2021/07/02 02:15:32;;;;;;;6.22;2.90;;;;;;;16.61;90.85;99984.17;2788960;85;20985;-63
2021/07/02 02:25:11;;;;;;;8.93;4.90;;;;;;;16.74;89.83;99980.94;2789434;85;21053;-63
2021/07/02 02:29:52;;;;;;;6.53;3.45;;;;;;;16.62;89.79;99996.07;2790267;85;21064;-63
2021/07/02 02:33:54;;;;;;;6.95;3.72;;;;;;;16.62;90.20;99996.07;2789892;85;21013;-62
2021/07/02 02:38:34;;;;;;;6.08;3.90;;;;;;;16.60;90.08;99992.72;2790331;85;20973;-63
2021/07/02 02:42:37;;;;;;;6.70;4.95;;;;;;;16.66;90.31;100002.77;2789641;85;20961;-63
2021/07/02 02:46:39;;;;;;;7.22;3.22;;;;;;;16.81;90.42;100002.05;2776519;85;21054;-63
2021/07/02 02:51:19;;;;;;;12.07;3.27;;;;;;;16.94;90.25;99999.66;2762245;86;21019;-63
2021/07/02 02:55:22;;;;;;;6.55;3.15;;;;;;;17.03;89.67;99993.77;2761610;86;21662;-63
2021/07/02 02:59:58;;;;;;;8.93;4.28;;;;;;;17.10;89.04;99993.91;2761880;86;21110;-63
2021/07/02 03:04:02;;;;;;;5.60;3.25;;;;;;;17.15;88.87;99990.19;2761204;86;20999;-63
2021/07/02 03:08:41;;;;;;;7.08;3.65;;;;;;;17.23;88.40;99999.53;2762057;86;21007;-64
2021/07/02 03:12:46;;;;;;;8.08;3.55;;;;;;;17.37;88.39;99990.39;2762038;86;21094;-64
2021/07/02 03:16:50;;;;;;;9.65;4.40;;;;;;;17.43;86.81;99984.29;2762185;85;21572;-64
2021/07/02 03:21:30;;;;;;;8.80;3.85;;;;;;;17.41;86.13;99987.67;2762303;86;21028;-64
2021/07/02 03:25:33;;;;;;;6.80;4.10;;;;;;;17.52;86.40;99984.58;2762184;86;21090;-64
2021/07/02 03:34:19;;;;;;;7.30;3.70;;;;;;;17.74;84.74;100002.23;2762194;85;21066;-64
2021/07/02 03:38:57;;;;;;;13.15;3.65;;;;;;;17.65;84.09;100014.05;2762735;86;21031;-64
2021/07/02 03:42:59;;;;;;;8.80;4.20;;;;;;;17.64;84.84;100017.77;2762027;86;21027;-64
2021/07/02 03:47:04;;;;;;;10.98;4.85;;;;;;;17.75;84.90;100016.02;2746386;85;21865;-64
2021/07/02 03:51:06;;;;;;;11.28;3.33;;;;;;;17.79;84.71;100017.32;2731404;87;21007;-64
2021/07/02 03:55:11;;;;;;;14.23;2.80;;;;;;;17.79;83.43;100019.19;2731600;86;21032;-64
2021/07/02 03:59:50;;;;;;;8.03;2.90;;;;;;;17.64;83.03;100014.58;2731986;87;21577;-64
2021/07/02 04:03:53;;;;;;;4.92;3.27;;;;;;;17.49;83.63;100015.86;2731371;86;21012;-63
2021/07/02 04:08:30;;;;;;;5.95;3.10;;;;;;;17.38;83.25;100013.56;2731785;86;21000;-63
2021/07/02 04:12:33;;;;;;;8.53;3.40;;;;;;;17.28;83.50;100019.16;2731265;86;21036;-64
2021/07/02 04:16:36;;;;;;;9.85;4.75;;;;;;;17.23;84.26;100015.66;2731557;87;21004;-63
2021/07/02 04:21:15;;;;;;;8.50;5.15;;;;;;;17.47;85.67;100014.36;2730865;87;21945;-63
2021/07/02 04:25:19;;;;;;;16.35;5.53;;;;;;;17.86;85.27;100017.44;2730870;86;21079;-64
2021/07/02 04:29:56;;;;;;;19.90;4.67;;;;;;;18.30;83.59;100008.34;2731047;86;21057;-63
2021/07/02 04:33:59;;;;;;;7.45;4.40;;;;;;;18.64;82.10;100014.53;2733098;86;21620;-64
2021/07/02 04:38:38;;;;;;;4.25;3.30;;;;;;;18.65;81.33;100005.42;2729933;86;21001;-63
2021/07/02 04:42:41;;;;;;;4.90;2.52;;;;;;;18.68;81.19;100006.92;2728008;86;21031;-63
2021/07/02 04:46:46;;;;;;;5.58;3.20;;;;;;;18.63;80.94;100010.17;2731714;86;21036;-63
2021/07/02 04:51:25;;;;;;;6.40;2.83;;;;;;;18.61;81.15;100017.60;2732486;86;21075;-63
2021/07/02 04:55:28;;;;;;;5.58;2.20;;;;;;;18.61;80.87;100012.22;2731564;87;20996;-63
2021/07/02 05:00:06;;;;;;;7.92;3.33;;;;;;;18.53;81.20;100020.40;2731920;87;21091;-63
2021/07/02 05:04:09;;;;;;;4.45;2.33;;;;;;;18.49;81.04;100021.80;2731562;86;21028;-63
2021/07/02 05:08:45;;;;;;;3.62;1.98;;;;;;;18.63;83.13;100022.81;2732151;86;21013;-63
2021/07/02 05:12:47;;;;;;;;;;;;;;;19.67;84.19;100020.99;2734816;87;20996;-63
2021/07/02 05:16:50;;;;;;;4.30;2.60;;;;;;;20.94;80.08;100008.15;2732679;87;20101;-64
2021/07/02 05:20:57;;;;;;;5.65;2.47;;;;;;;21.90;76.01;100020.38;2732872;87;21036;-64
2021/07/02 05:24:59;;;;;;;10.03;2.17;;;;;;;22.48;72.17;100021.64;2732714;86;21040;-64
2021/07/02 05:29:08;;;;;;;4.12;2.27;;;;;;;22.97;68.37;100021.59;2732681;86;20983;-64
2021/07/02 05:33:11;;;;;;;2.98;2.08;;;;;;;23.33;67.06;100017.19;2732817;86;20996;-64
2021/07/02 05:37:17;;;;;;;2.25;1.85;;;;;;;23.18;65.53;100010.67;2732828;87;21041;-64
2021/07/02 05:41:20;;;;;;;3.98;2.33;;;;;;;23.28;66.70;100012.95;2732915;87;21022;-64
2021/07/02 05:45:23;;;;;;;1.62;1.32;;;;;;;23.16;65.22;100016.30;2733040;86;21060;-64
2021/07/02 05:49:32;;;;;;;3.58;2.20;;;;;;;22.89;65.21;100019.64;2732659;86;21020;-64
2021/07/02 05:53:34;;;;;;;4.55;2.25;;;;;;;22.18;67.13;100027.45;2732425;86;21055;-65
2021/07/02 05:57:37;;;;;;;30.45;4.15;;;;;;;21.79;68.14;100032.12;2731978;87;21032;-64
2021/07/02 06:01:40;;;;;;;4.05;2.67;;;;;;;21.53;69.98;100034.25;2732498;87;21064;-65
2021/07/02 06:05:43;;;;;;;3.08;2.20;;;;;;;21.57;70.16;100030.59;2732448;87;21056;-64
2021/07/02 06:09:46;;;;;;;27.22;6.42;;;;;;;22.03;70.41;100030.38;2732577;86;21037;-65
2021/07/02 06:13:49;;;;;;;6.47;2.85;;;;;;;22.22;68.91;100030.08;2732798;86;21040;-64
2021/07/02 06:17:57;;;;;;;3.05;2.62;;;;;;;21.95;68.47;100038.19;2732393;86;21017;-65
2021/07/02 06:21:59;;;;;;;4.67;2.98;;;;;;;21.85;68.93;100039.95;2732414;86;21072;-65
2021/07/02 06:26:05;;;;;;;3.85;2.55;;;;;;;21.61;70.15;100037.27;2732420;86;21035;-65
2021/07/02 06:30:17;;;;;;;3.92;2.98;;;;;;;21.44;70.56;100039.02;2732593;87;21024;-65
2021/07/02 06:34:19;;;;;;;4.08;2.80;;;;;;;21.21;71.37;100049.63;2732446;87;21039;-64
2021/07/02 06:38:23;;;;;;;4.05;3.30;;;;;;;21.03;72.47;100051.54;2732213;87;21044;-64
2021/07/02 06:42:25;;;;;;;5.97;2.35;;;;;;;20.80;73.47;100056.73;2732465;87;21009;-64
2021/07/02 06:46:32;;;;;;;3.25;2.02;;;;;;;20.66;74.17;100057.14;2737002;86;21114;-64
2021/07/02 06:50:37;;;;;;;6.00;1.37;;;;;;;20.57;74.41;100054.79;2761444;86;21032;-64
2021/07/02 06:54:40;;;;;;;2.47;1.42;;;;;;;20.66;75.26;100050.38;2762059;86;21039;-64
2021/07/02 06:58:46;;;;;;;5.80;2.10;;;;;;;20.65;74.40;100046.02;2761988;86;21059;-64
2021/07/02 07:02:49;;;;;;;;;;;;;;;20.49;74.94;100047.66;2764457;85;21023;-64
2021/07/02 07:06:52;;;;;;;1.62;1.25;;;;;;;20.26;75.49;100046.05;2761538;86;20127;-65
2021/07/02 07:11:05;;;;;;;4.12;1.57;;;;;;;20.09;77.21;100047.67;2761672;85;20996;-64
2021/07/02 07:15:09;;;;;;;2.50;2.30;;;;;;;19.98;76.87;100045.48;2761567;85;21036;-64
2021/07/02 07:19:12;;;;;;;1.75;1.65;;;;;;;19.94;77.93;100046.91;2761396;85;20987;-65
2021/07/02 07:23:17;;;;;;;3.02;1.77;;;;;;;19.94;78.54;100055.82;2761464;86;21040;-64
2021/07/02 07:27:21;;;;;;;3.10;1.92;;;;;;;20.02;78.84;100057.56;2761622;86;21055;-64
2021/07/02 07:31:26;;;;;;;3.22;1.72;;;;;;;20.03;79.16;100063.27;2761124;85;21085;-64
2021/07/02 07:35:43;;;;;;;1.92;1.45;;;;;;;20.04;78.88;100056.84;2761581;85;21035;-64
2021/07/02 07:39:48;;;;;;;4.30;2.62;;;;;;;19.92;78.19;100064.63;2761249;85;21023;-64
2021/07/02 07:43:51;;;;;;;5.12;2.58;;;;;;;19.83;78.68;100069.81;2761453;86;21070;-63
2021/07/02 07:47:57;;;;;;;8.33;1.90;;;;;;;19.76;79.21;100063.00;2754111;85;21085;-64
2021/07/02 07:52:15;;;;;;;10.30;1.87;;;;;;;19.81;79.20;100069.17;2746363;85;21026;-65
2021/07/02 07:56:16;;;;;;;2.45;1.70;;;;;;;19.93;79.66;100068.18;2745676;85;20992;-64
2021/07/02 08:00:21;;;;;;;2.85;1.80;;;;;;;20.01;78.80;100067.22;2746312;85;21075;-63
2021/07/02 08:04:23;;;;;;;2.08;1.32;;;;;;;20.12;78.87;100066.17;2746414;85;21051;-64
2021/07/02 08:08:31;;;;;;;1.52;1.42;;;;;;;20.35;78.54;100065.64;2746427;86;20995;-63
2021/07/02 08:12:34;;;;;;;1.95;1.70;;;;;;;20.49;76.90;100073.33;2746301;86;20996;-63
2021/07/02 08:16:38;;;;;;;4.45;3.22;;;;;;;20.49;76.41;100078.73;2746491;85;21031;-64
2021/07/02 08:26:03;;;;;;;6.47;2.67;;;;;;;20.35;77.77;100078.62;2746451;86;21079;-64
2021/07/02 08:30:43;;;;;;;13.95;3.12;;;;;;;20.15;77.89;100078.97;2746400;85;21004;-64
2021/07/02 08:34:47;;;;;;;1.45;1.02;;;;;;;20.07;78.33;100076.73;2746283;86;21067;-64
2021/07/02 08:39:25;;;;;;;3.60;2.02;;;;;;;19.93;79.24;100076.28;2747129;85;21011;-64
2021/07/02 08:43:28;;;;;;;4.58;1.98;;;;;;;19.95;80.49;100080.97;2746686;85;21036;-63
2021/07/02 08:47:31;;;;;;;2.30;1.60;;;;;;;19.93;80.71;100067.65;2733811;86;21001;-63
2021/07/02 08:51:34;;;;;;;2.72;1.37;;;;;;;19.91;81.95;100070.20;2685312;88;21068;-64
2021/07/02 08:55:39;;;;;;;6.92;2.83;;;;;;;20.01;81.87;100077.48;2732370;87;21041;-64
2021/07/02 09:00:19;;;;;;;18.73;5.35;;;;;;;20.07;81.30;100068.63;2732291;86;21075;-64
2021/07/02 09:04:35;;;;;;;3.12;2.12;;;;;;;20.26;80.67;100071.70;2732053;87;21062;-64
2021/07/02 09:09:03;;;;;;;2.67;2.10;;;;;;;20.23;80.41;100071.56;2731734;87;21028;-64
2021/07/02 09:13:06;;;;;;;4.08;2.25;;;;;;;20.17;80.03;100071.50;2730992;87;21529;-64
2021/07/02 09:17:12;;;;;;;4.20;2.33;;;;;;;20.09;80.46;100075.17;2732697;87;21055;-63
2021/07/02 09:21:34;;;;;;;4.28;3.10;;;;;;;19.98;81.03;100069.78;2732367;87;21029;-63
2021/07/02 09:25:47;;;;;;;22.15;5.25;;;;;;;19.91;81.12;100068.86;2731427;87;21039;-64
2021/07/02 09:30:16;;;;;;;30.60;6.65;;;;;;;19.84;81.75;100068.79;2731834;87;21016;-64
2021/07/02 09:34:20;;;;;;;5.53;3.35;;;;;;;20.00;82.84;100066.37;2731452;87;21035;-64
2021/07/02 09:38:49;;;;;;;6.37;2.67;;;;;;;20.32;81.16;100071.41;2731676;86;21052;-63
2021/07/02 09:43:10;;;;;;;5.15;3.65;;;;;;;20.39;80.07;100069.09;2731497;87;21055;-64
2021/07/02 09:47:31;;;;;;;3.62;1.60;;;;;;;20.61;79.65;100076.32;2731801;86;21060;-64
2021/07/02 09:51:36;;;;;;;3.47;1.92;;;;;;;20.72;79.15;100071.70;2731201;87;21529;-64
2021/07/02 09:55:53;;;;;;;2.50;2.07;;;;;;;20.90;78.81;100068.53;2732115;87;21059;-63
2021/07/02 10:00:07;;;;;;;1.98;1.00;;;;;;;20.87;78.65;100077.05;2731646;87;21114;-63
2021/07/02 10:04:11;;;;;;;2.15;0.85;;;;;;;20.51;78.75;100082.89;2731668;86;20999;-63
2021/07/02 10:08:18;;;;;;;0.62;0.60;;;;;;;20.20;80.65;100086.81;2731459;87;21066;-64
2021/07/02 10:12:21;;;;;;;2.55;0.95;;;;;;;20.11;82.69;100083.41;2731877;87;21036;-63
2021/07/02 10:16:25;;;;;;;1.72;1.20;;;;;;;20.10;82.66;100086.29;2731609;87;21023;-64
2021/07/02 10:26:07;;;;;;;1.22;0.98;;;;;;;20.08;83.47;100087.85;2731587;87;21064;-64
2021/07/02 10:30:38;;;;;;;1.67;1.57;;;;;;;19.87;83.32;100095.92;2732080;87;20980;-64
2021/07/02 10:34:41;;;;;;;0.82;0.82;;;;;;;19.66;84.87;100092.17;2732118;87;21011;-64
2021/07/02 10:39:36;;;;;;;2.33;1.37;;;;;;;19.53;86.25;100082.89;2731964;87;21080;-63
2021/07/02 10:44:13;;;;;;;1.40;1.02;;;;;;;19.48;86.76;100088.52;2714248;86;21075;-65
2021/07/02 10:53:39;;;;;;;2.70;1.92;;;;;;;19.47;87.24;100092.25;2761425;86;21056;-66
2021/07/02 10:58:15;;;;;;;1.55;1.45;;;;;;;19.56;87.53;100091.13;2761013;86;21027;-65
2021/07/02 11:02:25;;;;;;;3.80;2.15;;;;;;;19.66;86.56;100101.61;2760104;86;20999;-65
2021/07/02 11:06:49;;;;;;;1.52;1.07;;;;;;;19.69;85.94;100098.53;2693808;86;21031;-65
2021/07/02 11:11:25;;;;;;;1.62;1.52;;;;;;;19.66;86.11;100107.01;2708609;86;21031;-69
2021/07/02 11:15:32;;;;;;;4.17;1.95;;;;;;;19.66;86.26;100111.05;2737338;85;21067;-64
2021/07/02 11:19:35;;;;;;;1.47;0.93;;;;;;;19.69;86.10;100113.38;2761539;85;21081;-65
2021/07/02 11:23:43;;;;;;;3.42;1.42;;;;;;;19.63;85.67;100123.55;2759550;86;21071;-65
2021/07/02 11:27:59;;;;;;;1.62;1.32;;;;;;;19.58;86.15;100123.30;2710974;87;21024;-64
2021/07/02 11:31:59;;;;;;;7.10;2.77;;;;;;;19.60;86.22;100123.44;2702901;87;21064;-64
2021/07/02 11:36:07;;;;;;;1.67;1.57;;;;;;;19.64;86.67;100123.38;2759572;86;21039;-66
2021/07/02 11:40:15;;;;;;;2.83;1.00;;;;;;;19.71;86.29;100123.45;2760138;86;21091;-64
2021/07/02 11:44:19;;;;;;;48.33;6.45;;;;;;;19.75;85.62;100118.00;2760023;85;21019;-65
2021/07/02 11:48:27;;;;;;;19.92;3.42;;;;;;;19.72;85.71;100122.43;2770478;84;21067;-66
2021/07/02 11:52:35;;;;;;;7.75;2.15;;;;;;;19.74;85.71;100121.72;2792984;85;21059;-65
2021/07/02 11:56:40;;;;;;;1.35;1.15;;;;;;;19.77;86.07;100118.64;2792605;85;21019;-65
2021/07/02 12:00:43;;;;;;;2.77;0.80;;;;;;;19.80;85.94;100123.65;2794228;85;21020;-64
2021/07/02 12:04:47;;;;;;;2.87;1.02;;;;;;;19.80;86.47;100120.95;2793751;85;21040;-64
2021/07/02 12:08:52;;;;;;;0.80;0.80;;;;;;;19.83;86.23;100119.22;2794009;84;21025;-64
2021/07/02 12:13:09;;;;;;;2.25;0.98;;;;;;;19.83;86.85;100120.56;2792223;84;21031;-64
2021/07/02 12:17:12;;;;;;;1.50;0.78;;;;;;;19.81;85.67;100116.41;2793173;84;21055;-65
2021/07/02 12:21:17;;;;;;;0.90;0.90;;;;;;;19.78;86.13;100116.27;2793168;85;21070;-65
2021/07/02 12:25:30;;;;;;;3.13;0.93;;;;;;;19.78;86.11;100124.36;2777870;85;21011;-65
2021/07/02 12:29:36;;;;;;;1.27;0.82;;;;;;;19.81;86.76;100121.80;2789618;84;20992;-64
2021/07/02 12:33:46;;;;;;;1.30;1.10;;;;;;;19.82;86.68;100117.55;2792293;84;21069;-65
2021/07/02 12:37:56;;;;;;;3.45;1.52;;;;;;;19.72;87.89;100122.92;2793372;85;21008;-64
2021/07/02 12:42:11;;;;;;;3.72;1.47;;;;;;;19.66;89.50;100132.11;2793306;85;21063;-63
2021/07/02 12:46:15;;;;;;;3.47;1.77;;;;;;;19.69;90.62;100121.47;2775590;84;21023;-63
2021/07/02 12:50:22;;;;;;;3.55;1.57;;;;;;;19.72;91.46;100129.17;2768758;84;21008;-63
2021/07/02 12:58:46;;;;;;;7.58;1.75;;;;;;;19.66;90.75;100132.11;2757289;86;21650;-62
2021/07/02 13:02:53;;;;;;;2.45;1.40;;;;;;;19.68;91.80;100135.98;2719902;87;21024;-62
2021/07/02 13:06:58;;;;;;;5.70;2.15;;;;;;;19.70;91.40;100136.63;2724842;87;21068;-62
2021/07/02 13:11:24;;;;;;;1.32;1.22;;;;;;;19.66;92.34;100133.99;2759900;86;21088;-63
2021/07/02 13:15:28;;;;;;;1.67;1.57;;;;;;;19.69;92.05;100139.82;2689434;88;21062;-62
2021/07/02 13:19:31;;;;;;;3.00;1.17;;;;;;;19.58;92.18;100134.08;2759226;85;21042;-62
2021/07/02 13:23:40;;;;;;;3.92;1.30;;;;;;;19.61;92.88;100135.05;2760262;86;21015;-62
2021/07/02 13:27:49;;;;;;;2.35;2.10;;;;;;;19.64;93.13;100133.31;2758972;86;20996;-62
2021/07/02 13:31:53;;;;;;;2.22;1.77;;;;;;;19.65;93.33;100129.59;2693500;88;21571;-62
2021/07/02 13:36:02;;;;;;;3.87;1.92;;;;;;;19.69;93.44;100137.66;2700217;87;21277;-61
2021/07/02 13:40:07;;;;;;;3.80;1.62;;;;;;;19.82;94.04;100136.44;2705047;87;21071;-61
2021/07/02 13:44:15;;;;;;;1.82;1.37;;;;;;;20.03;93.70;100133.47;2712392;87;21044;-61
2021/07/02 13:48:17;;;;;;;3.42;3.10;;;;;;;20.20;93.27;100136.77;2710248;86;21059;-62
2021/07/02 13:52:21;;;;;;;2.80;2.15;;;;;;;20.35;92.55;100131.29;2733296;86;21099;-62
2021/07/02 13:56:24;;;;;;;2.27;2.10;;;;;;;20.48;92.69;100128.39;2744157;85;22215;-62
2021/07/02 14:00:32;;;;;;;3.27;2.65;;;;;;;20.59;92.57;100122.97;2744489;86;21031;-62
2021/07/02 14:04:35;;;;;;;2.25;2.05;;;;;;;20.72;92.65;100131.16;2743403;86;21016;-62
2021/07/02 14:08:42;;;;;;;3.00;2.12;;;;;;;20.79;91.20;100131.21;2724236;86;21047;-61
2021/07/02 14:12:46;;;;;;;4.17;2.22;;;;;;;20.79;91.01;100125.30;2743419;85;22678;-62
2021/07/02 14:16:48;;;;;;;3.08;1.87;;;;;;;20.91;91.78;100122.91;2744770;86;20988;-61
2021/07/02 14:20:59;;;;;;;3.20;2.10;;;;;;;21.11;91.41;100121.66;2744917;86;21056;-61
2021/07/02 14:25:03;;;;;;;4.60;2.25;;;;;;;21.31;90.29;100114.17;2746120;86;21063;-61
2021/07/02 14:29:07;;;;;;;3.40;2.87;;;;;;;21.47;89.52;100111.66;2747197;86;21062;-61
2021/07/02 14:33:12;;;;;;;3.52;2.52;;;;;;;21.68;88.57;100111.23;2733877;86;20992;-62
2021/07/02 14:37:23;;;;;;;3.12;2.22;;;;;;;21.82;88.56;100111.59;2745584;86;20992;-61
2021/07/02 14:41:25;;;;;;;4.25;2.27;;;;;;;21.93;87.63;100117.44;2745815;86;21012;-61
2021/07/02 14:45:29;;;;;;;4.67;2.10;;;;;;;22.04;85.75;100117.35;2743192;85;21056;-61
2021/07/02 14:49:31;;;;;;;2.98;2.40;;;;;;;22.02;85.33;100113.52;2710117;85;21038;-62
2021/07/02 14:53:35;;;;;;;6.45;3.47;;;;;;;22.10;85.94;100124.14;2745766;85;21078;-61
2021/07/02 14:57:39;;;;;;;3.92;3.58;;;;;;;22.25;85.96;100116.34;2752354;86;20989;-61
2021/07/02 15:01:42;;;;;;;10.80;3.25;;;;;;;22.33;84.68;100113.42;2771577;84;21030;-61
2021/07/02 15:05:45;;;;;;;8.50;4.78;;;;;;;22.45;84.24;100116.34;2774087;86;20971;-61
2021/07/02 15:09:48;;;;;;;6.87;4.53;;;;;;;22.52;83.86;100115.02;2773543;86;21055;-61
2021/07/02 15:13:57;;;;;;;8.90;6.35;;;;;;;22.63;83.62;100110.33;2773290;85;21054;-61
2021/07/02 15:18:07;;;;;;;11.48;9.13;;;;;;;22.89;83.62;100103.70;2709716;86;21054;-61
2021/07/02 15:22:10;;;;;;;6.60;5.10;;;;;;;23.27;83.90;100107.06;2723123;86;21063;-62
2021/07/02 15:26:13;;;;;;;6.03;4.85;;;;;;;23.58;80.06;100106.84;2732268;86;21033;-62
2021/07/02 15:31:11;;;;;;;4.28;3.85;;;;;;;23.86;80.18;100094.77;2773868;86;21058;-62
2021/07/02 15:35:14;;;;;;;6.72;5.00;;;;;;;24.16;80.51;100100.14;2773821;85;21011;-61
2021/07/02 15:39:20;;;;;;;7.40;5.37;;;;;;;24.57;76.75;100098.77;2715603;87;21015;-61
2021/07/02 15:43:23;;;;;;;6.12;4.10;;;;;;;24.84;75.58;100090.38;2728970;85;21242;-61
2021/07/02 15:47:38;;;;;;;4.50;4.10;;;;;;;25.07;76.09;100098.39;2717375;87;21006;-61
2021/07/02 15:51:40;;;;;;;4.87;4.33;;;;;;;25.27;73.27;100095.95;2732021;86;21051;-62
2021/07/02 15:55:44;;;;;;;4.67;4.17;;;;;;;25.29;71.74;100096.05;2733849;87;21059;-61
2021/07/02 15:59:47;;;;;;;5.17;3.95;;;;;;;25.39;72.51;100088.70;2733536;87;21584;-61
2021/07/02 16:03:52;;;;;;;5.90;4.97;;;;;;;25.39;71.09;100085.43;2729756;86;21127;-60
2021/07/02 16:07:56;;;;;;;8.63;4.65;;;;;;;25.31;69.96;100081.67;2687938;88;21096;-60
2021/07/02 16:11:59;;;;;;;6.65;4.87;;;;;;;25.13;70.19;100082.50;2800772;85;21027;-61
2021/07/02 16:16:02;;;;;;;6.42;4.62;;;;;;;24.93;71.40;100084.11;2794349;85;20981;-61
2021/07/02 16:20:08;;;;;;;8.58;5.40;;;;;;;24.67;71.67;100077.87;2778081;85;21049;-60
2021/07/02 16:24:11;;;;;;;5.97;3.58;;;;;;;24.37;72.17;100083.47;2791138;85;21051;-61
2021/07/02 16:28:17;;;;;;;9.63;5.62;;;;;;;24.25;72.82;100079.80;2798955;84;20984;-61
2021/07/02 16:32:20;;;;;;;4.03;2.92;;;;;;;24.17;73.08;100084.14;2777394;85;21454;-61
2021/07/02 16:36:23;;;;;;;6.08;3.70;;;;;;;23.91;70.99;100083.25;2777369;84;20980;-61
2021/07/02 16:40:26;;;;;;;2.40;2.20;;;;;;;23.66;71.16;100092.19;2786043;84;21063;-62
2021/07/02 16:44:29;;;;;;;1.98;1.60;;;;;;;23.47;71.05;100081.72;2799232;85;20948;-61
2021/07/02 16:48:33;;;;;;;2.83;1.98;;;;;;;23.37;71.03;100089.81;2798597;85;21066;-61
2021/07/02 16:52:36;;;;;;;2.33;1.30;;;;;;;23.38;70.69;100087.92;2762462;84;21146;-61
2021/07/02 16:56:39;;;;;;;2.77;2.50;;;;;;;23.30;70.15;100086.83;2761980;86;21015;-62
2021/07/02 17:00:41;;;;;;;2.22;1.55;;;;;;;23.31;70.63;100083.06;2760483;86;21063;-61
2021/07/02 17:04:45;;;;;;;1.98;1.80;;;;;;;23.28;70.39;100089.73;2697534;87;21081;-62
2021/07/02 17:08:50;;;;;;;3.55;2.50;;;;;;;23.34;71.51;100096.19;2760631;85;21020;-62
2021/07/02 17:12:55;;;;;;;3.22;2.27;;;;;;;23.39;70.41;100090.44;2698686;87;21007;-61
2021/07/02 17:17:03;;;;;;;5.30;2.67;;;;;;;23.44;69.57;100088.44;2687545;87;21047;-61
2021/07/02 17:21:08;;;;;;;4.70;3.92;;;;;;;23.47;69.66;100088.00;2709204;87;21099;-62
2021/07/02 17:25:15;;;;;;;4.95;4.28;;;;;;;23.44;69.94;100087.08;2713706;86;20995;-62
2021/07/02 17:29:20;;;;;;;4.37;3.42;;;;;;;23.38;70.82;100083.85;2711813;87;20984;-64
2021/07/02 17:33:23;;;;;;;4.42;3.72;;;;;;;23.37;71.21;100080.32;2698616;87;21056;-62
2021/07/02 17:37:28;;;;;;;7.12;4.28;;;;;;;23.36;71.73;100073.73;2699418;87;21047;-61
2021/07/02 17:41:34;;;;;;;5.12;3.62;;;;;;;23.37;72.32;100076.77;2706027;87;21011;-61
2021/07/02 17:45:38;;;;;;;10.18;4.40;;;;;;;23.46;73.02;100080.91;2700084;87;21587;-62
2021/07/02 17:49:41;;;;;;;7.12;4.37;;;;;;;23.42;72.37;100082.39;2730664;86;21032;-61
2021/07/02 17:53:44;;;;;;;7.30;4.72;;;;;;;23.41;72.92;100088.02;2795038;85;21048;-61
2021/07/02 17:57:47;;;;;;;10.53;5.92;;;;;;;23.32;72.22;100085.57;2797649;85;21043;-61
2021/07/02 18:01:51;;;;;;;5.72;5.10;;;;;;;23.23;72.52;100077.31;2800589;85;21012;-61
2021/07/02 18:05:54;;;;;;;6.12;4.25;;;;;;;23.09;73.14;100082.81;2801659;85;21027;-61
2021/07/02 18:09:57;;;;;;;9.10;3.95;;;;;;;23.00;73.31;100085.97;2800944;84;21018;-62
2021/07/02 18:14:00;;;;;;;6.78;4.90;;;;;;;23.00;73.94;100081.91;2800574;84;21034;-62
2021/07/02 18:18:05;;;;;;;5.87;4.15;;;;;;;22.95;73.90;100087.42;2798859;84;21017;-62
2021/07/02 18:22:08;;;;;;;;;;;;;;;22.93;73.58;100082.73;2802793;85;21047;-61
2021/07/02 18:26:11;;;;;;;5.83;3.95;;;;;;;22.87;73.62;100083.59;2800709;85;20107;-60
2021/07/02 18:30:16;;;;;;;6.37;5.55;;;;;;;22.78;73.40;100081.63;2799048;85;21071;-62
2021/07/02 18:34:19;;;;;;;5.30;4.55;;;;;;;22.78;73.92;100084.84;2800547;84;21003;-62
2021/07/02 18:38:23;;;;;;;6.78;4.40;;;;;;;22.72;74.21;100085.20;2800864;85;21011;-62
2021/07/02 18:42:27;;;;;;;5.40;4.17;;;;;;;22.65;74.47;100078.93;2799384;84;21027;-62
2021/07/02 18:46:30;;;;;;;4.75;4.30;;;;;;;22.56;74.65;100079.67;2797415;85;21035;-61
2021/07/02 18:50:38;;;;;;;6.05;5.08;;;;;;;22.39;74.87;100073.83;2785119;83;21047;-61
2021/07/02 18:54:41;;;;;;;24.55;7.22;;;;;;;22.30;75.68;100088.11;2760820;86;21051;-61
2021/07/02 18:58:47;;;;;;;4.83;4.30;;;;;;;22.18;76.10;100081.63;2759422;86;21309;-61
2021/07/02 19:02:51;;;;;;;8.88;5.53;;;;;;;22.04;76.69;100087.56;2696603;88;21117;-61
2021/07/02 19:07:03;;;;;;;6.85;5.65;;;;;;;21.99;77.11;100084.65;2716361;87;21091;-62
2021/07/02 19:11:07;;;;;;;10.98;6.28;;;;;;;21.92;77.41;100079.22;2725322;87;21570;-61
2021/07/02 19:15:16;;;;;;;10.53;6.42;;;;;;;21.80;77.90;100083.05;2761389;86;20983;-62
2021/07/02 19:19:21;;;;;;;7.70;6.08;;;;;;;21.55;78.70;100081.70;2699647;87;21043;-62
2021/07/02 19:23:25;;;;;;;9.83;7.60;;;;;;;21.38;79.44;100086.65;2699600;88;21897;-62
2021/07/02 19:27:28;;;;;;;12.35;6.45;;;;;;;21.24;80.20;100085.77;2699231;88;21015;-62
2021/07/02 19:31:32;;;;;;;7.90;7.10;;;;;;;21.15;80.79;100085.60;2758942;86;20987;-61
2021/07/02 19:35:35;;;;;;;9.55;7.10;;;;;;;21.02;81.44;100090.93;2713927;87;21027;-61
2021/07/02 19:39:40;;;;;;;14.93;9.15;;;;;;;20.88;82.25;100095.44;2761066;86;21078;-61
2021/07/02 19:43:44;;;;;;;11.43;7.60;;;;;;;20.72;82.97;100095.20;2759284;86;21015;-61
2021/07/02 19:47:55;;;;;;;13.50;9.55;;;;;;;20.59;83.85;100098.12;2698534;88;21011;-62